METAR AND TAF INFORMATION
METAR FOR LFKJ
ADDS - METARS form results

(2116 UTC 03 August 2021)
Data provider http://aviationweather.gov/metar/data/
 
METAR text: LFKJ 032100Z AUTO 05005KT CAVOK 22/17 Q1015 NOSIG
Conditions at: LFKJ (AJACCIO/CAMPO OR, FR) observed 2100 UTC 03 August 2021
Temperature: 22.0°C (72°F)
Dewpoint: 17.0°C (63°F) [RH = 73%]
Pressure (altimeter): 29.97 inches Hg (1015.0 mb)
Winds: from the NE (50 degrees) at 6 MPH (5 knots; 2.6 m/s)
Visibility: 6 or more miles (10+ km)
Ceiling: ceiling and visibility are OK
Clouds: unknown
Weather: no significant weather observed at this time

METAR text: LFKJ 032030Z AUTO 04004KT CAVOK 23/18 Q1016 NOSIG
Conditions at: LFKJ (AJACCIO/CAMPO OR, FR) observed 2030 UTC 03 August 2021
Temperature: 23.0°C (73°F)
Dewpoint: 18.0°C (64°F) [RH = 73%]
Pressure (altimeter): 30.00 inches Hg (1016.0 mb)
Winds: from the NE (40 degrees) at 5 MPH (4 knots; 2.1 m/s)
Visibility: 6 or more miles (10+ km)
Ceiling: ceiling and visibility are OK
Clouds: unknown
Weather: no significant weather observed at this time

Forecast for: LFKJ (AJACCIO/CAMPO OR, FR)
Text: TAF LFKJ 032000Z 0321/0421 04004KT 9999 FEW050 BKN140
Forecast period: 2100 UTC 03 August 2021 to 0700 UTC 04 August 2021
Forecast type: FROM: standard forecast or significant change
Winds: from the NE (40 degrees) at 5 MPH (4 knots; 2.1 m/s)
Visibility: 6 or more miles (10+ km)
Ceiling: 14000 feet AGL
Clouds: few clouds at 5000 feet AGL
broken clouds at 14000 feet AGL
Weather: no significant weather forecast for this period
Text: BECMG 0407/0409 24010KT
Forecast period: 0700 to 2100 UTC 04 August 2021
Forecast type: BECOMING: Conditions expected to become as follows by 0900 UTC 04 August 2021
Winds: from the WSW (240 degrees) at 12 MPH (10 knots; 5.1 m/s)
Visibility: 6 or more miles (10+ km)
Ceiling: 14000 feet AGL
Clouds: few clouds at 5000 feet AGL
broken clouds at 14000 feet AGL
Weather: no significant weather forecast for this period
Text: TEMPO 0411/0418 33010KT
Forecast period: 1100 to 1800 UTC 04 August 2021
Forecast type: TEMPORARY: The following changes expected for less than half the time period
Winds: from the NNW (330 degrees) at 12 MPH (10 knots; 5.1 m/s)
Visibility: missing
Ceiling: unknown
Clouds: missing
Weather: no significant weather forecast for this period

 AIRPORT MAP

 RUNWAY INFORMATION
Runway 02 Runway length 7897 ft Runway width 148 ft
Runway elevation 15 ft Runway displaced threshold 0 ft Runway heading 25
Runway 20 Runway length 7897 ft Runway width 148 ft
Runway elevation 18 ft Runway displaced threshold 744 ft Runway heading 205

 AIRPORT FREQUENCIES
Type AFIS Name AFIS Frequency 119.825 MHZ
Type APP Name AJACCIO AP Frequency 121.05 MHZ
Type ATIS Name AJACCIO AT Frequency 126.925 MHZ
Type GND Name AJACCIO GN Frequency 121.7 MHZ
Type TWR Name AJACCIO TW Frequency 118.075 MHZ

 AIRPORT NEAR NAVIGATION AIDS
Type NDB Name Ajaccio/Campo Dell Oro Frequency 341 KHZ





Powered by Virtual Airlines Manager

Maps by Rafael Santos